Brainerd Lakes Regional Airport
KBRD : now visible

Airfield :











YOU CAN JOIN US ON...

 
LOGIN :

Register | Disclaimer

   EN    FR    IT 

 









Legend :    VFR   Marginal VFR   IFR   Intensive IFR   Very Intensive IFR
Visi :
Ceiling :
>= 8 km
>= 3000ft
5 to 8 km
1000 to 3000 ft
1500m to 5 km
500 to 1000 ft
800 to 1500m
200 to 500 ft
< 800m
< 200 ft
Symbols :   Thunderstorms  Fog  Heavy snow  Heavy precipitations  Wind > 20 kt






- Airport Elevation : 1232 ft


KBRD - Brainerd Lakes Regional

CURRENT METAR :
  • 200233Z AUTO 34008KT 2SM -SN OVC028 M12/M16 A3054 RMK AO2 P0000 T11221156 $

EXPIRED METARs :
  • 200201Z AUTO 31004KT 2SM -SN OVC030 M12/M16 A3053 RMK AO2 P0000 T11221156 $
  • 200143Z AUTO 31004KT 1 3/4SM -SN OVC030 M12/M16 A3053 RMK AO2 SNB16 P0000 T11221156 $
  • 200053Z AUTO 30004KT 6SM HZ FEW031 OVC075 M12/M16 A3052 RMK AO2 SNE45 SLP368 P0000 T11221156 $
  • 200034Z AUTO 31003KT 3SM -SN OVC027 M13/M16 A3052 RMK AO2 P0000 T11281156 $
  • 200021Z AUTO 31005KT 1 1/2SM -SN OVC021 M13/M16 A3052 RMK AO2 P0000 T11281156 $
  • 200003Z AUTO 30005KT 1SM -SN OVC022 M12/M16 A3052 RMK AO2 P0000 T11221161 $
  • 192355Z AUTO 28005KT 1 1/2SM -SN OVC028 M12/M16 A3052 RMK AO2 P0000 T11221161 $

TAF KBRD
Valid from the 20 at 02:00 until the 21 at 00:00 UTC


200208Z 2002/2024 30004KT 3SM -SN OVC030
TEMPO 2002/2003 2SM -SN BKN024
FM200400 00000KT P6SM VCSH OVC023
FM200900 00000KT P6SM OVC040
FM201000 00000KT P6SM OVC027
FM201800 00000KT P6SM BKN045



MET'MAP, your aeronautical weather chart ! - Copyright ORBIFLY December 2007 - Disclaimer

ORBIFLY MET'MAP TEAM :

Programming & Development : Alexandra Zaïnal
Concept & original design : Baudouin d'Aumeries
Assistance for programming : Marc-Olivier Méhu
Technical & hardware support : Manuel Goepfert

Contact : metmap@orbifly.com




SOURCES & CREDITS :

   NOAA       Earth
Advisory